Pataskala, Ohio
Current Conditions -  °F | °C
As of 2:56 PM on Tuesday 21 Oct 2014 (Local Time) from KVTA Reporting Station
Light Rain Light Rain  
Wind Chill: 50°   Ceiling: 1200
Heat Index: 50°   Visibility: 3mi
Dew Point: 46°   Wind: 7mph
Humidity: 86%   Direction: 350°N
Pressure: 29.98"   Gusts: 21mph
Location:  40°N, 82.67°W
Report Text: KVTA 211856Z AUTO 35006G18KT 3SM -RA BR BKN012 BKN019 OVC029 10/08 A2998 RMK AO2 P0001 T01000078
Loading
Personal Weather Stations






























Interactive Weather Map
Tropical Storm Tracking
New forecast layout! Learn more

10-Day Weather Forecast

Advertisements
Track Severe Weather on mobile